createdAt,value
2023-05-08T00:00:22.778Z,5.29
2023-05-08T00:03:14.201Z,5.28
2023-05-08T00:05:45.442Z,5.23
2023-05-08T00:08:16.965Z,5.22
2023-05-08T00:10:46.597Z,5.21
2023-05-08T00:13:17.979Z,5.16
2023-05-08T00:15:47.768Z,5.15
2023-05-08T00:18:18.941Z,5.13
2023-05-08T00:20:49.976Z,5.09
2023-05-08T00:23:19.464Z,5.06
2023-05-08T00:25:50.546Z,5.02
2023-05-08T00:28:19.976Z,5.00
2023-05-08T00:30:51.080Z,4.94
2023-05-08T00:33:20.500Z,4.86
2023-05-08T00:35:51.575Z,4.77
2023-05-08T00:38:22.734Z,4.71
2023-05-08T00:40:53.863Z,4.68
2023-05-08T00:43:28.086Z,4.65
2023-05-08T00:46:01.202Z,4.64
2023-05-08T00:48:35.156Z,4.61
2023-05-08T00:51:09.634Z,4.58
2023-05-08T00:53:43.301Z,4.57
2023-05-08T00:56:16.914Z,4.56
2023-05-08T00:58:48.299Z,4.55
2023-05-08T01:01:19.910Z,4.53
2023-05-08T01:03:51.271Z,4.49
2023-05-08T01:06:22.325Z,4.41
2023-05-08T01:08:53.363Z,4.32
2023-05-08T01:11:30.749Z,4.24
2023-05-08T01:14:12.643Z,4.19
2023-05-08T01:17:11.858Z,4.13
2023-05-08T01:20:10.157Z,4.12
2023-05-08T01:23:03.622Z,4.10
2023-05-08T01:26:03.745Z,4.13
2023-05-08T01:29:14.459Z,4.13
2023-05-08T01:32:07.217Z,4.14
2023-05-08T01:34:45.892Z,4.13
2023-05-08T01:37:21.337Z,4.12
2023-05-08T01:40:02.258Z,4.09
2023-05-08T01:42:42.531Z,4.07
2023-05-08T01:45:20.037Z,4.06
2023-05-08T01:48:02.193Z,4.03
2023-05-08T01:50:37.895Z,3.97
2023-05-08T01:53:14.631Z,3.93
2023-05-08T01:55:48.659Z,3.92
2023-05-08T01:58:20.860Z,3.90
2023-05-08T02:00:52.879Z,3.88
2023-05-08T02:03:26.365Z,3.87
2023-05-08T02:05:58.909Z,3.86
2023-05-08T02:08:33.318Z,3.85
2023-05-08T02:11:06.297Z,3.81
2023-05-08T02:13:38.408Z,3.79
2023-05-08T02:16:12.148Z,3.77
2023-05-08T02:18:50.991Z,3.74
2023-05-08T02:21:23.582Z,3.74
2023-05-08T02:23:55.543Z,3.75
2023-05-08T02:26:28.705Z,3.75
2023-05-08T02:29:01.595Z,3.76
2023-05-08T02:31:33.167Z,3.75
2023-05-08T02:34:06.059Z,3.73
2023-05-08T02:36:39.142Z,3.74
2023-05-08T02:39:13.037Z,3.73
2023-05-08T02:41:44.547Z,3.75
2023-05-08T02:44:17.128Z,3.74
2023-05-08T02:46:54.381Z,3.73
2023-05-08T02:49:33.348Z,3.71
2023-05-08T02:52:10.187Z,3.69
2023-05-08T02:54:44.575Z,3.68
2023-05-08T02:57:24.249Z,3.67
2023-05-08T03:00:02.084Z,3.66
2023-05-08T03:02:40.925Z,3.61
2023-05-08T03:05:18.140Z,3.63
2023-05-08T03:07:52.284Z,3.60
2023-05-08T03:10:29.560Z,3.57
2023-05-08T03:13:03.930Z,3.51
2023-05-08T03:15:43.175Z,3.43
2023-05-08T03:18:19.061Z,3.38
2023-05-08T03:20:54.016Z,3.34
2023-05-08T03:23:27.556Z,3.32
2023-05-08T03:26:02.169Z,3.31
2023-05-08T03:28:36.775Z,3.31
2023-05-08T03:31:08.630Z,3.32
2023-05-08T03:33:43.105Z,3.32
2023-05-08T03:36:14.743Z,3.32
2023-05-08T03:38:46.030Z,3.31
2023-05-08T03:41:17.123Z,3.29
2023-05-08T03:43:49.203Z,3.24
2023-05-08T03:46:20.991Z,3.24
2023-05-08T03:48:52.947Z,3.23
2023-05-08T03:51:24.956Z,3.22
2023-05-08T03:53:56.140Z,3.21
2023-05-08T03:56:27.389Z,3.18
2023-05-08T03:59:09.317Z,3.20
2023-05-08T04:01:49.872Z,3.21
2023-05-08T04:04:27.098Z,3.22
2023-05-08T04:07:09.177Z,3.25
2023-05-08T04:09:45.266Z,3.27
2023-05-08T04:12:21.958Z,3.30
2023-05-08T04:14:57.364Z,3.34
2023-05-08T04:17:40.561Z,3.39
2023-05-08T04:20:16.356Z,3.70
2023-05-08T04:22:48.641Z,4.01
2023-05-08T04:25:22.303Z,4.33
2023-05-08T04:27:56.176Z,4.59
2023-05-08T04:30:27.929Z,4.69
2023-05-08T04:33:00.384Z,4.96
2023-05-08T04:35:32.254Z,5.18
2023-05-08T04:38:03.569Z,5.17
2023-05-08T04:40:34.857Z,5.01
2023-05-08T04:43:05.921Z,4.90
2023-05-08T04:45:36.962Z,4.83
2023-05-08T04:48:09.245Z,4.94
2023-05-08T04:50:40.842Z,5.39
2023-05-08T04:53:11.730Z,5.83
2023-05-08T04:55:43.034Z,6.16
2023-05-08T04:58:14.829Z,6.51
2023-05-08T05:00:46.079Z,6.83
2023-05-08T05:03:17.469Z,7.08
2023-05-08T05:05:48.360Z,7.35
2023-05-08T05:08:19.265Z,7.21
2023-05-08T05:10:50.380Z,6.90
2023-05-08T05:13:21.975Z,6.65
2023-05-08T05:15:54.487Z,6.41
2023-05-08T05:18:25.471Z,6.27
2023-05-08T05:20:58.680Z,6.10
2023-05-08T05:23:29.550Z,5.92
2023-05-08T05:25:59.046Z,5.75
2023-05-08T05:28:30.158Z,5.64
2023-05-08T05:30:59.543Z,5.60
2023-05-08T05:33:30.748Z,5.58
2023-05-08T05:36:01.683Z,5.56
2023-05-08T05:38:31.208Z,5.58
2023-05-08T05:41:02.193Z,5.59
2023-05-08T05:43:33.621Z,5.60
2023-05-08T05:46:09.414Z,5.62
2023-05-08T05:48:40.740Z,5.65
2023-05-08T05:51:12.023Z,5.70
2023-05-08T05:53:43.975Z,5.77
2023-05-08T05:56:14.929Z,5.83
2023-05-08T05:58:45.950Z,5.90
2023-05-08T06:01:17.229Z,6.00
2023-05-08T06:03:46.709Z,6.10
2023-05-08T06:06:17.670Z,6.15
2023-05-08T06:08:49.089Z,6.14
2023-05-08T06:11:18.343Z,6.23
2023-05-08T06:13:50.584Z,6.27
2023-05-08T06:16:23.275Z,6.34
2023-05-08T06:18:54.638Z,6.41
2023-05-08T06:21:25.741Z,6.47
2023-05-08T06:23:56.881Z,6.54
2023-05-08T06:26:27.974Z,6.62
2023-05-08T06:28:57.495Z,6.68
2023-05-08T06:31:28.683Z,6.73
2023-05-08T06:34:01.625Z,6.78
2023-05-08T06:36:32.779Z,6.82
2023-05-08T06:39:05.215Z,6.87
2023-05-08T06:41:36.949Z,6.91
2023-05-08T06:44:08.037Z,6.94
2023-05-08T06:46:39.846Z,7.01
2023-05-08T06:49:10.754Z,7.06
2023-05-08T06:51:41.986Z,7.09
2023-05-08T06:54:12.945Z,7.12
2023-05-08T06:56:44.307Z,7.16
2023-05-08T06:59:15.348Z,7.23
2023-05-08T07:01:46.342Z,7.31
2023-05-08T07:04:17.357Z,7.39
2023-05-08T07:06:49.071Z,7.50
2023-05-08T07:09:20.112Z,7.59
2023-05-08T07:11:51.313Z,7.69
2023-05-08T07:14:22.836Z,7.81
2023-05-08T07:16:53.746Z,7.87
2023-05-08T07:19:25.089Z,7.90
2023-05-08T07:21:56.294Z,7.92
2023-05-08T07:24:27.679Z,7.97
2023-05-08T07:26:57.316Z,8.06
2023-05-08T07:29:28.656Z,8.13
2023-05-08T07:32:00.116Z,8.24
2023-05-08T07:34:31.343Z,8.37
2023-05-08T07:37:00.934Z,8.52
2023-05-08T07:39:30.857Z,8.64
2023-05-08T07:42:02.128Z,8.72
2023-05-08T07:44:43.666Z,8.80
2023-05-08T07:47:24.729Z,8.93
2023-05-08T07:49:55.978Z,9.06
2023-05-08T07:52:27.693Z,9.15
2023-05-08T07:54:59.421Z,9.29
2023-05-08T07:57:36.912Z,9.41
2023-05-08T08:00:11.661Z,9.52
2023-05-08T08:02:45.874Z,9.60
2023-05-08T08:05:17.283Z,9.66
2023-05-08T08:07:48.491Z,9.74
2023-05-08T08:10:19.351Z,9.82
2023-05-08T08:12:50.178Z,9.93
2023-05-08T08:15:21.907Z,10.05
2023-05-08T08:17:52.989Z,10.14
2023-05-08T08:20:24.311Z,10.19
2023-05-08T08:22:58.942Z,10.31
2023-05-08T08:25:30.787Z,10.46
2023-05-08T08:28:02.180Z,10.62
2023-05-08T08:30:33.409Z,10.67
2023-05-08T08:33:06.378Z,10.58
2023-05-08T08:35:38.230Z,10.57
2023-05-08T08:38:09.261Z,10.63
2023-05-08T08:40:43.494Z,10.70
2023-05-08T08:43:14.911Z,10.79
2023-05-08T08:45:46.050Z,10.78
2023-05-08T08:48:17.925Z,10.84
2023-05-08T08:50:52.537Z,10.87
2023-05-08T08:53:33.412Z,10.89
2023-05-08T08:56:07.120Z,10.96
2023-05-08T08:58:46.013Z,11.01
2023-05-08T09:01:20.627Z,11.11
2023-05-08T09:03:52.170Z,11.23
2023-05-08T09:06:23.804Z,11.35
2023-05-08T09:08:58.552Z,11.46
2023-05-08T09:11:30.200Z,11.53
2023-05-08T09:14:01.809Z,11.58
2023-05-08T09:16:33.225Z,11.55
2023-05-08T09:19:05.093Z,11.61
2023-05-08T09:21:37.214Z,11.61
2023-05-08T09:24:10.009Z,11.67
2023-05-08T09:26:42.649Z,11.73
2023-05-08T09:29:15.918Z,11.84
2023-05-08T09:31:50.358Z,11.94
2023-05-08T09:34:28.929Z,11.99
2023-05-08T09:37:14.332Z,12.04
2023-05-08T09:39:50.315Z,12.08
2023-05-08T09:42:23.199Z,12.17
2023-05-08T09:44:55.339Z,12.24
2023-05-08T09:47:27.021Z,12.26
2023-05-08T09:50:02.405Z,12.32
2023-05-08T09:52:34.507Z,12.43
2023-05-08T09:55:08.067Z,12.49
2023-05-08T09:57:41.072Z,12.55
2023-05-08T10:00:14.671Z,12.60
2023-05-08T10:02:58.192Z,12.68
2023-05-08T10:05:32.214Z,12.62
2023-05-08T10:08:21.666Z,12.57
2023-05-08T10:10:53.426Z,12.61
2023-05-08T10:13:26.332Z,12.65
2023-05-08T10:15:58.126Z,12.65
2023-05-08T10:18:36.363Z,12.69
2023-05-08T10:21:10.137Z,12.74
2023-05-08T10:23:43.501Z,12.75
2023-05-08T10:26:20.361Z,12.76
2023-05-08T10:28:57.969Z,12.79
2023-05-08T10:31:32.470Z,12.83
2023-05-08T10:34:04.159Z,12.89
2023-05-08T10:36:36.885Z,12.98
2023-05-08T10:39:08.337Z,13.09
2023-05-08T10:41:41.268Z,13.20
2023-05-08T10:44:12.970Z,13.27
2023-05-08T10:46:51.432Z,13.30
2023-05-08T10:49:32.881Z,13.30
2023-05-08T10:52:17.413Z,13.32
2023-05-08T10:55:24.443Z,13.35
2023-05-08T10:58:15.039Z,13.37
2023-05-08T11:01:19.775Z,13.46
2023-05-08T11:03:51.970Z,13.59
2023-05-08T11:06:50.044Z,13.64
2023-05-08T11:09:28.997Z,13.71
2023-05-08T11:12:25.341Z,13.72
2023-05-08T11:15:02.974Z,13.75
2023-05-08T11:17:34.779Z,13.77
2023-05-08T11:20:07.674Z,13.88
2023-05-08T11:22:39.517Z,14.00
2023-05-08T11:25:14.722Z,14.06
2023-05-08T11:28:13.996Z,14.05
2023-05-08T11:30:47.344Z,14.11
2023-05-08T11:33:21.378Z,14.17
2023-05-08T11:35:55.342Z,14.09
2023-05-08T11:38:32.526Z,13.97
2023-05-08T11:41:05.339Z,13.93
2023-05-08T11:43:50.914Z,13.94
2023-05-08T11:46:22.917Z,13.99
2023-05-08T11:49:05.096Z,14.04
2023-05-08T11:51:56.464Z,14.01
2023-05-08T11:54:32.995Z,14.01
2023-05-08T11:57:07.397Z,13.94
2023-05-08T11:59:44.002Z,13.90
2023-05-08T12:02:15.410Z,13.89
2023-05-08T12:04:49.850Z,13.95
2023-05-08T12:07:22.223Z,14.04
2023-05-08T12:09:53.378Z,14.09
2023-05-08T12:12:24.338Z,14.08
2023-05-08T12:14:55.338Z,14.07
2023-05-08T12:17:26.679Z,14.07
2023-05-08T12:20:04.057Z,14.10
2023-05-08T12:22:35.333Z,14.14
2023-05-08T12:25:08.213Z,14.14
2023-05-08T12:27:40.453Z,14.11
2023-05-08T12:30:14.266Z,14.10
2023-05-08T12:32:45.878Z,14.11
2023-05-08T12:35:18.229Z,14.17
2023-05-08T12:37:49.275Z,14.31
2023-05-08T12:40:31.571Z,14.43
2023-05-08T12:43:05.069Z,14.50
2023-05-08T12:45:39.283Z,14.52
2023-05-08T12:48:12.129Z,14.52
2023-05-08T12:50:46.151Z,14.50
2023-05-08T12:53:20.704Z,14.49
2023-05-08T12:55:57.165Z,14.43
2023-05-08T12:58:29.967Z,14.43
2023-05-08T13:01:10.239Z,14.39
2023-05-08T13:03:42.425Z,14.38
2023-05-08T13:06:25.519Z,14.37
2023-05-08T13:08:57.174Z,14.39
2023-05-08T13:11:34.807Z,14.46
2023-05-08T13:14:06.001Z,14.51
2023-05-08T13:16:47.741Z,14.49
2023-05-08T13:19:19.107Z,14.48
2023-05-08T13:21:50.289Z,14.47
2023-05-08T13:24:21.549Z,14.49
2023-05-08T13:26:52.732Z,14.53
2023-05-08T13:29:24.324Z,14.54
2023-05-08T13:31:55.279Z,14.55
2023-05-08T13:34:26.559Z,14.56
2023-05-08T13:36:57.564Z,14.60
2023-05-08T13:39:29.190Z,14.61
2023-05-08T13:42:00.197Z,14.60
2023-05-08T13:44:31.302Z,14.59
2023-05-08T13:47:02.326Z,14.62
2023-05-08T13:49:34.055Z,14.63
2023-05-08T13:52:05.351Z,14.64
2023-05-08T13:54:36.456Z,14.64
2023-05-08T13:57:08.172Z,14.65
2023-05-08T13:59:39.324Z,14.68
2023-05-08T14:02:10.391Z,14.73
2023-05-08T14:04:50.736Z,14.87
2023-05-08T14:07:21.754Z,15.03
2023-05-08T14:09:52.825Z,15.09
2023-05-08T14:12:23.837Z,15.15
2023-05-08T14:14:54.992Z,15.34
2023-05-08T14:17:25.942Z,15.53
2023-05-08T14:19:57.219Z,15.74
2023-05-08T14:22:28.020Z,15.94
2023-05-08T14:24:59.013Z,16.08
2023-05-08T14:27:30.200Z,16.24
2023-05-08T14:30:01.458Z,16.45
2023-05-08T14:32:35.490Z,16.74
2023-05-08T14:35:07.015Z,16.99
2023-05-08T14:37:38.016Z,17.24
2023-05-08T14:40:10.877Z,17.48
2023-05-08T14:42:41.832Z,17.58
2023-05-08T14:45:14.224Z,17.54
2023-05-08T14:47:45.539Z,17.54
2023-05-08T14:50:16.689Z,17.44
2023-05-08T14:52:48.353Z,17.21
2023-05-08T14:55:21.250Z,16.84
2023-05-08T14:57:52.882Z,16.67
2023-05-08T15:00:27.014Z,16.60
2023-05-08T15:02:58.330Z,16.47
2023-05-08T15:05:29.730Z,16.35
2023-05-08T15:08:02.690Z,16.30
2023-05-08T15:10:34.194Z,16.31
2023-05-08T15:13:05.471Z,16.32
2023-05-08T15:15:36.581Z,16.18
2023-05-08T15:18:07.894Z,15.99
2023-05-08T15:20:39.163Z,15.87
2023-05-08T15:23:10.119Z,15.92
2023-05-08T15:25:41.124Z,16.00
2023-05-08T15:28:12.767Z,16.11
2023-05-08T15:30:46.176Z,16.23
2023-05-08T15:33:17.817Z,16.47
2023-05-08T15:35:49.187Z,16.67
2023-05-08T15:38:20.132Z,16.71
2023-05-08T15:40:51.189Z,16.74
2023-05-08T15:43:22.251Z,16.77
2023-05-08T15:45:53.277Z,16.84
2023-05-08T15:48:24.485Z,16.96
2023-05-08T15:50:56.068Z,17.17
2023-05-08T15:53:27.212Z,17.39
2023-05-08T15:55:58.146Z,17.49
2023-05-08T15:58:29.108Z,17.42
2023-05-08T16:01:00.375Z,17.42
2023-05-08T16:03:31.756Z,17.26
2023-05-08T16:06:03.188Z,16.99
2023-05-08T16:08:34.339Z,16.83
2023-05-08T16:11:05.528Z,16.76
2023-05-08T16:13:36.670Z,16.81
2023-05-08T16:16:08.348Z,16.91
2023-05-08T16:18:39.366Z,17.00
2023-05-08T16:21:13.290Z,16.91
2023-05-08T16:23:44.440Z,16.72
2023-05-08T16:26:16.673Z,16.52
2023-05-08T16:28:49.950Z,16.44
2023-05-08T16:31:21.081Z,16.55
2023-05-08T16:33:52.036Z,16.62
2023-05-08T16:36:23.123Z,16.65
2023-05-08T16:38:54.239Z,16.56
2023-05-08T16:41:26.473Z,16.49
2023-05-08T16:43:57.540Z,16.55
2023-05-08T16:46:30.430Z,16.54
2023-05-08T16:49:01.719Z,16.52
2023-05-08T16:51:33.071Z,16.46
2023-05-08T16:54:04.171Z,16.39
2023-05-08T16:56:35.642Z,16.29
2023-05-08T16:59:07.102Z,16.28
2023-05-08T17:01:38.249Z,16.22
2023-05-08T17:04:09.691Z,16.08
2023-05-08T17:06:41.500Z,15.76
2023-05-08T17:09:12.658Z,15.39
2023-05-08T17:11:43.768Z,15.09
2023-05-08T17:14:14.738Z,14.97
2023-05-08T17:16:45.710Z,14.91
2023-05-08T17:19:16.845Z,14.84
2023-05-08T17:21:48.106Z,14.77
2023-05-08T17:24:19.694Z,14.73
2023-05-08T17:26:50.793Z,14.65
2023-05-08T17:29:21.723Z,14.46
2023-05-08T17:31:52.921Z,14.27
2023-05-08T17:34:24.473Z,14.14
2023-05-08T17:36:55.822Z,14.01
2023-05-08T17:39:27.453Z,13.80
2023-05-08T17:41:58.496Z,13.55
2023-05-08T17:44:29.520Z,13.42
2023-05-08T17:47:00.549Z,13.52
2023-05-08T17:49:31.804Z,13.46
2023-05-08T17:52:03.608Z,13.27
2023-05-08T17:54:34.956Z,13.11
2023-05-08T17:57:06.674Z,12.94
2023-05-08T17:59:37.846Z,12.74
2023-05-08T18:02:09.127Z,12.56
2023-05-08T18:04:40.437Z,12.36
2023-05-08T18:07:11.393Z,12.17
2023-05-08T18:09:42.802Z,12.00
2023-05-08T18:12:13.849Z,11.85
2023-05-08T18:14:45.429Z,11.72
2023-05-08T18:17:19.302Z,11.58
2023-05-08T18:19:50.645Z,11.46
2023-05-08T18:22:21.919Z,11.34
2023-05-08T18:24:54.414Z,11.23
2023-05-08T18:27:26.571Z,11.09
2023-05-08T18:29:58.237Z,11.01
2023-05-08T18:32:29.505Z,10.87
2023-05-08T18:35:00.640Z,10.77
2023-05-08T18:37:31.707Z,10.68
2023-05-08T18:40:03.596Z,10.61
2023-05-08T18:42:32.884Z,10.55
2023-05-08T18:45:06.301Z,10.48
2023-05-08T18:47:37.434Z,10.42
2023-05-08T18:50:10.493Z,10.37
2023-05-08T18:52:41.546Z,10.31
2023-05-08T18:55:11.402Z,10.26
2023-05-08T18:57:42.468Z,10.15
2023-05-08T19:00:13.683Z,10.10
2023-05-08T19:02:45.148Z,10.03
2023-05-08T19:05:16.245Z,9.99
2023-05-08T19:07:47.349Z,9.96
2023-05-08T19:10:18.470Z,9.89
2023-05-08T19:12:50.910Z,9.85
2023-05-08T19:15:22.382Z,9.81
2023-05-08T19:17:53.448Z,9.79
2023-05-08T19:20:24.932Z,9.77
2023-05-08T19:22:56.139Z,9.73
2023-05-08T19:25:27.628Z,9.67
2023-05-08T19:27:58.812Z,9.61
2023-05-08T19:30:28.213Z,9.57
2023-05-08T19:32:59.192Z,9.51
2023-05-08T19:35:28.642Z,9.46
2023-05-08T19:37:59.716Z,9.41
2023-05-08T19:40:30.953Z,9.36
2023-05-08T19:43:01.947Z,9.32
2023-05-08T19:45:32.968Z,9.26
2023-05-08T19:48:08.141Z,9.22
2023-05-08T19:50:44.681Z,9.16
2023-05-08T19:53:17.288Z,9.12
2023-05-08T19:55:49.453Z,9.08
2023-05-08T19:58:20.722Z,9.01
2023-05-08T20:00:52.092Z,8.97
2023-05-08T20:03:23.213Z,8.92
2023-05-08T20:05:54.749Z,8.87
2023-05-08T20:08:25.851Z,8.83
2023-05-08T20:10:58.013Z,8.79
2023-05-08T20:13:29.369Z,8.76
2023-05-08T20:16:00.749Z,8.72
2023-05-08T20:18:30.477Z,8.68
2023-05-08T20:21:01.540Z,8.62
2023-05-08T20:23:33.050Z,8.57
2023-05-08T20:26:05.290Z,8.52
2023-05-08T20:28:37.153Z,8.45
2023-05-08T20:31:08.158Z,8.43
2023-05-08T20:33:39.410Z,8.39
2023-05-08T20:36:08.954Z,8.34
2023-05-08T20:38:39.878Z,8.30
2023-05-08T20:41:09.363Z,8.29
2023-05-08T20:43:40.627Z,8.24
2023-05-08T20:46:11.808Z,8.21
2023-05-08T20:48:43.564Z,8.17
2023-05-08T20:51:15.940Z,8.13
2023-05-08T20:53:47.605Z,8.10
2023-05-08T20:56:21.774Z,8.08
2023-05-08T20:58:53.242Z,8.04
2023-05-08T21:01:24.431Z,8.01
2023-05-08T21:03:55.541Z,7.94
2023-05-08T21:06:24.945Z,7.94
2023-05-08T21:08:57.855Z,7.89
2023-05-08T21:11:28.975Z,7.88
2023-05-08T21:14:00.226Z,7.85
2023-05-08T21:16:31.215Z,7.79
2023-05-08T21:19:00.750Z,7.76
2023-05-08T21:21:31.808Z,7.72
2023-05-08T21:24:03.069Z,7.68
2023-05-08T21:26:33.993Z,7.63
2023-05-08T21:29:04.489Z,7.59
2023-05-08T21:31:36.317Z,7.53
2023-05-08T21:34:08.044Z,7.50
2023-05-08T21:36:39.191Z,7.46
2023-05-08T21:39:09.220Z,7.43
2023-05-08T21:41:40.206Z,7.38
2023-05-08T21:44:11.582Z,7.34
2023-05-08T21:46:42.962Z,7.29
2023-05-08T21:49:14.349Z,7.28
2023-05-08T21:51:45.892Z,7.24
2023-05-08T21:54:17.191Z,7.21
2023-05-08T21:56:48.841Z,7.20
2023-05-08T21:59:18.137Z,7.18
2023-05-08T22:01:49.435Z,7.13
2023-05-08T22:04:20.840Z,7.08
2023-05-08T22:06:52.003Z,7.06
2023-05-08T22:09:22.972Z,7.05
2023-05-08T22:11:54.103Z,7.01
2023-05-08T22:14:25.395Z,6.99
2023-05-08T22:16:56.460Z,6.95
2023-05-08T22:19:28.227Z,6.90
2023-05-08T22:21:59.407Z,6.87
2023-05-08T22:24:30.379Z,6.82
2023-05-08T22:27:01.306Z,6.76
2023-05-08T22:29:32.909Z,6.72
2023-05-08T22:32:04.121Z,6.70
2023-05-08T22:34:33.507Z,6.69
2023-05-08T22:37:04.984Z,6.66
2023-05-08T22:39:34.572Z,6.64
2023-05-08T22:42:06.439Z,6.60
2023-05-08T22:44:37.855Z,6.55
2023-05-08T22:47:09.622Z,6.49
2023-05-08T22:49:43.294Z,6.39
2023-05-08T22:52:14.513Z,6.26
2023-05-08T22:54:45.702Z,6.04
2023-05-08T22:57:16.776Z,5.82
2023-05-08T22:59:47.796Z,5.70
2023-05-08T23:02:18.851Z,5.62
2023-05-08T23:04:50.413Z,5.54
2023-05-08T23:07:21.899Z,5.43
2023-05-08T23:09:52.759Z,5.29
2023-05-08T23:12:23.829Z,5.24
2023-05-08T23:14:53.520Z,5.21
2023-05-08T23:17:25.324Z,5.17
2023-05-08T23:19:56.650Z,5.13
2023-05-08T23:22:28.693Z,5.09
2023-05-08T23:25:00.011Z,4.98
2023-05-08T23:27:31.357Z,4.93
2023-05-08T23:30:02.660Z,4.85
2023-05-08T23:32:33.672Z,4.79
2023-05-08T23:35:05.012Z,4.73
2023-05-08T23:37:34.316Z,4.67
2023-05-08T23:40:07.080Z,4.60
2023-05-08T23:42:38.326Z,4.53
2023-05-08T23:45:12.210Z,4.47
2023-05-08T23:47:43.532Z,4.36
2023-05-08T23:50:15.293Z,4.32
2023-05-08T23:52:46.419Z,4.26
2023-05-08T23:55:16.177Z,4.21
2023-05-08T23:57:47.629Z,4.15
